sensor_id;sensor_type;location;lat;lon;timestamp;temperature;humidity
25918;DHT22;13899;51.174;4.456;2022-11-13T00:00:33;10.90;99.90
25918;DHT22;13899;51.174;4.456;2022-11-13T00:03:02;10.70;99.90
25918;DHT22;13899;51.174;4.456;2022-11-13T00:05:31;10.60;99.90
25918;DHT22;13899;51.174;4.456;2022-11-13T00:07:57;10.60;99.90
25918;DHT22;13899;51.174;4.456;2022-11-13T00:10:23;10.80;99.90
25918;DHT22;13899;51.174;4.456;2022-11-13T00:12:49;10.70;99.90
25918;DHT22;13899;51.174;4.456;2022-11-13T00:15:15;10.70;99.90
25918;DHT22;13899;51.174;4.456;2022-11-13T00:17:40;10.70;99.90
25918;DHT22;13899;51.174;4.456;2022-11-13T00:20:06;10.60;99.90
25918;DHT22;13899;51.174;4.456;2022-11-13T00:22:32;10.60;99.90
25918;DHT22;13899;51.174;4.456;2022-11-13T00:24:58;10.50;99.90
25918;DHT22;13899;51.174;4.456;2022-11-13T00:27:24;10.40;99.90
25918;DHT22;13899;51.174;4.456;2022-11-13T00:29:50;10.50;99.90
25918;DHT22;13899;51.174;4.456;2022-11-13T00:32:15;10.40;99.90
25918;DHT22;13899;51.174;4.456;2022-11-13T00:34:42;10.30;99.90
25918;DHT22;13899;51.174;4.456;2022-11-13T00:37:07;10.40;99.90
25918;DHT22;13899;51.174;4.456;2022-11-13T00:39:34;10.40;99.90
25918;DHT22;13899;51.174;4.456;2022-11-13T00:42:00;10.40;99.90
25918;DHT22;13899;51.174;4.456;2022-11-13T00:44:27;10.30;99.90
25918;DHT22;13899;51.174;4.456;2022-11-13T00:46:53;10.30;99.90
25918;DHT22;13899;51.174;4.456;2022-11-13T00:49:19;10.40;99.90
25918;DHT22;13899;51.174;4.456;2022-11-13T00:51:54;10.30;99.90
25918;DHT22;13899;51.174;4.456;2022-11-13T00:54:20;10.40;99.90
25918;DHT22;13899;51.174;4.456;2022-11-13T00:56:45;10.40;99.90
25918;DHT22;13899;51.174;4.456;2022-11-13T00:59:11;10.10;99.90
25918;DHT22;13899;51.174;4.456;2022-11-13T01:01:37;10.20;99.90
25918;DHT22;13899;51.174;4.456;2022-11-13T01:04:02;10.00;99.90
25918;DHT22;13899;51.174;4.456;2022-11-13T01:06:28;10.10;99.90
25918;DHT22;13899;51.174;4.456;2022-11-13T01:08:56;10.00;99.90
25918;DHT22;13899;51.174;4.456;2022-11-13T01:11:24;10.00;99.90
25918;DHT22;13899;51.174;4.456;2022-11-13T01:13:51;10.00;99.90
25918;DHT22;13899;51.174;4.456;2022-11-13T01:16:19;9.90;99.90
25918;DHT22;13899;51.174;4.456;2022-11-13T01:18:47;9.80;99.90
25918;DHT22;13899;51.174;4.456;2022-11-13T01:21:21;9.70;99.90
25918;DHT22;13899;51.174;4.456;2022-11-13T01:23:47;9.70;99.90
25918;DHT22;13899;51.174;4.456;2022-11-13T01:28:43;9.70;99.90
25918;DHT22;13899;51.174;4.456;2022-11-13T01:31:12;9.50;99.90
25918;DHT22;13899;51.174;4.456;2022-11-13T01:33:38;9.80;99.90
25918;DHT22;13899;51.174;4.456;2022-11-13T01:36:11;9.70;99.90
25918;DHT22;13899;51.174;4.456;2022-11-13T01:38:37;9.80;99.90
25918;DHT22;13899;51.174;4.456;2022-11-13T01:41:05;9.50;99.90
25918;DHT22;13899;51.174;4.456;2022-11-13T01:43:32;9.60;99.90
25918;DHT22;13899;51.174;4.456;2022-11-13T01:48:31;9.80;99.90
25918;DHT22;13899;51.174;4.456;2022-11-13T01:50:58;9.70;99.90
25918;DHT22;13899;51.174;4.456;2022-11-13T01:53:24;9.60;99.90
25918;DHT22;13899;51.174;4.456;2022-11-13T01:55:50;9.50;99.90
25918;DHT22;13899;51.174;4.456;2022-11-13T01:58:16;9.60;99.90
25918;DHT22;13899;51.174;4.456;2022-11-13T02:00:42;9.80;99.90
25918;DHT22;13899;51.174;4.456;2022-11-13T02:03:08;9.70;99.90
25918;DHT22;13899;51.174;4.456;2022-11-13T02:05:33;9.80;99.90
25918;DHT22;13899;51.174;4.456;2022-11-13T02:07:59;9.90;99.90
25918;DHT22;13899;51.174;4.456;2022-11-13T02:10:25;9.80;99.90
25918;DHT22;13899;51.174;4.456;2022-11-13T02:12:51;9.80;99.90
25918;DHT22;13899;51.174;4.456;2022-11-13T02:15:20;9.70;99.90
25918;DHT22;13899;51.174;4.456;2022-11-13T02:17:52;9.70;99.90
25918;DHT22;13899;51.174;4.456;2022-11-13T02:20:28;9.70;99.90
25918;DHT22;13899;51.174;4.456;2022-11-13T02:23:08;9.70;99.90
25918;DHT22;13899;51.174;4.456;2022-11-13T02:25:37;9.50;99.90
25918;DHT22;13899;51.174;4.456;2022-11-13T02:28:03;9.30;99.90
25918;DHT22;13899;51.174;4.456;2022-11-13T02:30:31;9.30;99.90
25918;DHT22;13899;51.174;4.456;2022-11-13T02:32:57;9.30;99.90
25918;DHT22;13899;51.174;4.456;2022-11-13T02:35:30;9.20;99.90
25918;DHT22;13899;51.174;4.456;2022-11-13T02:38:00;9.40;99.90
25918;DHT22;13899;51.174;4.456;2022-11-13T02:40:27;9.40;99.90
25918;DHT22;13899;51.174;4.456;2022-11-13T02:42:53;9.20;99.90
25918;DHT22;13899;51.174;4.456;2022-11-13T02:45:19;9.10;99.90
25918;DHT22;13899;51.174;4.456;2022-11-13T02:47:45;9.20;99.90
25918;DHT22;13899;51.174;4.456;2022-11-13T02:50:11;9.30;99.90
25918;DHT22;13899;51.174;4.456;2022-11-13T02:52:36;9.30;99.90
25918;DHT22;13899;51.174;4.456;2022-11-13T02:55:04;9.20;99.90
25918;DHT22;13899;51.174;4.456;2022-11-13T02:57:29;9.20;99.90
25918;DHT22;13899;51.174;4.456;2022-11-13T02:59:56;9.30;99.90
25918;DHT22;13899;51.174;4.456;2022-11-13T03:02:23;8.90;99.90
25918;DHT22;13899;51.174;4.456;2022-11-13T03:04:50;9.00;99.90
25918;DHT22;13899;51.174;4.456;2022-11-13T03:07:16;9.00;99.90
25918;DHT22;13899;51.174;4.456;2022-11-13T03:09:41;9.40;99.90
25918;DHT22;13899;51.174;4.456;2022-11-13T03:12:09;9.40;99.90
25918;DHT22;13899;51.174;4.456;2022-11-13T03:14:35;9.40;99.90
25918;DHT22;13899;51.174;4.456;2022-11-13T03:17:01;9.50;99.90
25918;DHT22;13899;51.174;4.456;2022-11-13T03:19:27;9.50;99.90
25918;DHT22;13899;51.174;4.456;2022-11-13T03:21:53;9.40;99.90
25918;DHT22;13899;51.174;4.456;2022-11-13T03:24:19;9.50;99.90
25918;DHT22;13899;51.174;4.456;2022-11-13T03:26:46;9.40;99.90
25918;DHT22;13899;51.174;4.456;2022-11-13T03:29:11;9.40;99.90
25918;DHT22;13899;51.174;4.456;2022-11-13T03:31:37;9.40;99.90
25918;DHT22;13899;51.174;4.456;2022-11-13T03:34:03;9.40;99.90
25918;DHT22;13899;51.174;4.456;2022-11-13T03:36:29;9.30;99.90
25918;DHT22;13899;51.174;4.456;2022-11-13T03:38:54;9.30;99.90
25918;DHT22;13899;51.174;4.456;2022-11-13T03:41:21;9.20;99.90
25918;DHT22;13899;51.174;4.456;2022-11-13T03:43:48;9.30;99.90
25918;DHT22;13899;51.174;4.456;2022-11-13T03:46:14;9.30;99.90
25918;DHT22;13899;51.174;4.456;2022-11-13T03:48:40;9.20;99.90
25918;DHT22;13899;51.174;4.456;2022-11-13T03:51:05;8.90;99.90
25918;DHT22;13899;51.174;4.456;2022-11-13T03:53:31;8.70;99.90
25918;DHT22;13899;51.174;4.456;2022-11-13T03:55:57;8.60;99.90
25918;DHT22;13899;51.174;4.456;2022-11-13T03:58:27;8.70;99.90
25918;DHT22;13899;51.174;4.456;2022-11-13T04:00:54;8.50;99.90
25918;DHT22;13899;51.174;4.456;2022-11-13T04:03:20;8.50;99.90
25918;DHT22;13899;51.174;4.456;2022-11-13T04:05:47;8.40;99.90
25918;DHT22;13899;51.174;4.456;2022-11-13T04:08:15;8.40;99.90
25918;DHT22;13899;51.174;4.456;2022-11-13T04:10:41;8.50;99.90
25918;DHT22;13899;51.174;4.456;2022-11-13T04:13:07;8.50;99.90
25918;DHT22;13899;51.174;4.456;2022-11-13T04:15:33;8.50;99.90
25918;DHT22;13899;51.174;4.456;2022-11-13T04:18:00;8.50;99.90
25918;DHT22;13899;51.174;4.456;2022-11-13T04:20:26;8.60;99.90
25918;DHT22;13899;51.174;4.456;2022-11-13T04:22:54;8.60;99.90
25918;DHT22;13899;51.174;4.456;2022-11-13T04:25:20;8.60;99.90
25918;DHT22;13899;51.174;4.456;2022-11-13T04:27:48;8.60;99.90
25918;DHT22;13899;51.174;4.456;2022-11-13T04:30:13;8.40;99.90
25918;DHT22;13899;51.174;4.456;2022-11-13T04:32:42;8.30;99.90
25918;DHT22;13899;51.174;4.456;2022-11-13T04:35:08;8.50;99.90
25918;DHT22;13899;51.174;4.456;2022-11-13T04:37:33;8.40;99.90
25918;DHT22;13899;51.174;4.456;2022-11-13T04:39:59;8.60;99.90
25918;DHT22;13899;51.174;4.456;2022-11-13T04:42:24;8.60;99.90
25918;DHT22;13899;51.174;4.456;2022-11-13T04:45:09;8.40;99.90
25918;DHT22;13899;51.174;4.456;2022-11-13T04:47:36;8.50;99.90
25918;DHT22;13899;51.174;4.456;2022-11-13T04:50:03;8.60;99.90
25918;DHT22;13899;51.174;4.456;2022-11-13T04:52:29;8.70;99.90
25918;DHT22;13899;51.174;4.456;2022-11-13T04:54:55;8.70;99.90
25918;DHT22;13899;51.174;4.456;2022-11-13T04:57:21;8.70;99.90
25918;DHT22;13899;51.174;4.456;2022-11-13T04:59:47;8.70;99.90
25918;DHT22;13899;51.174;4.456;2022-11-13T05:02:14;8.70;99.90
25918;DHT22;13899;51.174;4.456;2022-11-13T05:04:41;8.80;99.90
25918;DHT22;13899;51.174;4.456;2022-11-13T05:07:07;8.70;99.90
25918;DHT22;13899;51.174;4.456;2022-11-13T05:09:32;8.60;99.90
25918;DHT22;13899;51.174;4.456;2022-11-13T05:11:58;8.60;99.90
25918;DHT22;13899;51.174;4.456;2022-11-13T05:14:25;8.50;99.90
25918;DHT22;13899;51.174;4.456;2022-11-13T05:16:50;8.70;99.90
25918;DHT22;13899;51.174;4.456;2022-11-13T05:19:16;8.70;99.90
25918;DHT22;13899;51.174;4.456;2022-11-13T05:21:42;8.70;99.90
25918;DHT22;13899;51.174;4.456;2022-11-13T05:24:10;8.60;99.90
25918;DHT22;13899;51.174;4.456;2022-11-13T05:26:37;8.70;99.90
25918;DHT22;13899;51.174;4.456;2022-11-13T05:29:05;8.50;99.90
25918;DHT22;13899;51.174;4.456;2022-11-13T05:31:31;8.30;99.90
25918;DHT22;13899;51.174;4.456;2022-11-13T05:33:58;8.50;99.90
25918;DHT22;13899;51.174;4.456;2022-11-13T05:36:25;8.60;99.90
25918;DHT22;13899;51.174;4.456;2022-11-13T05:38:51;8.60;99.90
25918;DHT22;13899;51.174;4.456;2022-11-13T05:41:18;8.60;99.90
25918;DHT22;13899;51.174;4.456;2022-11-13T05:43:45;8.50;99.90
25918;DHT22;13899;51.174;4.456;2022-11-13T05:46:23;8.40;99.90
25918;DHT22;13899;51.174;4.456;2022-11-13T05:48:54;8.50;99.90
25918;DHT22;13899;51.174;4.456;2022-11-13T05:51:25;8.40;99.90
25918;DHT22;13899;51.174;4.456;2022-11-13T05:53:52;8.60;99.90
25918;DHT22;13899;51.174;4.456;2022-11-13T05:56:28;8.70;99.90
25918;DHT22;13899;51.174;4.456;2022-11-13T05:58:56;8.60;99.90
25918;DHT22;13899;51.174;4.456;2022-11-13T06:01:35;8.60;99.90
25918;DHT22;13899;51.174;4.456;2022-11-13T06:04:02;8.40;99.90
25918;DHT22;13899;51.174;4.456;2022-11-13T06:06:30;8.50;99.90
25918;DHT22;13899;51.174;4.456;2022-11-13T06:08:58;8.40;99.90
25918;DHT22;13899;51.174;4.456;2022-11-13T06:11:26;8.50;99.90
25918;DHT22;13899;51.174;4.456;2022-11-13T06:13:53;8.70;99.90
25918;DHT22;13899;51.174;4.456;2022-11-13T06:16:21;8.40;99.90
25918;DHT22;13899;51.174;4.456;2022-11-13T06:18:48;8.40;99.90
25918;DHT22;13899;51.174;4.456;2022-11-13T06:21:17;8.40;99.90
25918;DHT22;13899;51.174;4.456;2022-11-13T06:23:43;8.40;99.90
25918;DHT22;13899;51.174;4.456;2022-11-13T06:28:37;8.20;99.90
25918;DHT22;13899;51.174;4.456;2022-11-13T06:31:12;8.20;99.90
25918;DHT22;13899;51.174;4.456;2022-11-13T06:33:39;8.10;99.90
25918;DHT22;13899;51.174;4.456;2022-11-13T06:36:12;8.30;99.90
25918;DHT22;13899;51.174;4.456;2022-11-13T06:38:40;8.20;99.90
25918;DHT22;13899;51.174;4.456;2022-11-13T06:41:07;8.10;99.90
25918;DHT22;13899;51.174;4.456;2022-11-13T06:43:33;8.00;99.90
25918;DHT22;13899;51.174;4.456;2022-11-13T06:46:03;8.10;99.90
25918;DHT22;13899;51.174;4.456;2022-11-13T06:48:29;8.10;99.90
25918;DHT22;13899;51.174;4.456;2022-11-13T06:51:00;8.00;99.90
25918;DHT22;13899;51.174;4.456;2022-11-13T06:53:26;7.90;99.90
25918;DHT22;13899;51.174;4.456;2022-11-13T06:55:52;8.10;99.90
25918;DHT22;13899;51.174;4.456;2022-11-13T06:58:18;8.10;99.90
25918;DHT22;13899;51.174;4.456;2022-11-13T07:00:43;7.90;99.90
25918;DHT22;13899;51.174;4.456;2022-11-13T07:03:24;7.80;99.90
25918;DHT22;13899;51.174;4.456;2022-11-13T07:05:50;8.00;99.90
25918;DHT22;13899;51.174;4.456;2022-11-13T07:08:17;7.80;99.90
25918;DHT22;13899;51.174;4.456;2022-11-13T07:10:43;7.70;99.90
25918;DHT22;13899;51.174;4.456;2022-11-13T07:13:16;7.60;99.90
25918;DHT22;13899;51.174;4.456;2022-11-13T07:15:42;7.50;99.90
25918;DHT22;13899;51.174;4.456;2022-11-13T07:18:07;7.70;99.90
25918;DHT22;13899;51.174;4.456;2022-11-13T07:20:33;7.40;99.90
25918;DHT22;13899;51.174;4.456;2022-11-13T07:23:01;7.50;99.90
25918;DHT22;13899;51.174;4.456;2022-11-13T07:25:27;7.50;99.90
25918;DHT22;13899;51.174;4.456;2022-11-13T07:27:53;7.60;99.90
25918;DHT22;13899;51.174;4.456;2022-11-13T07:30:19;7.50;99.90
25918;DHT22;13899;51.174;4.456;2022-11-13T07:32:45;7.40;99.90
25918;DHT22;13899;51.174;4.456;2022-11-13T07:35:11;7.50;99.90
25918;DHT22;13899;51.174;4.456;2022-11-13T07:37:36;7.50;99.90
25918;DHT22;13899;51.174;4.456;2022-11-13T07:40:03;7.50;99.90
25918;DHT22;13899;51.174;4.456;2022-11-13T07:42:29;7.50;99.90
25918;DHT22;13899;51.174;4.456;2022-11-13T07:44:55;7.60;99.90
25918;DHT22;13899;51.174;4.456;2022-11-13T07:47:20;7.40;99.90
25918;DHT22;13899;51.174;4.456;2022-11-13T07:49:47;7.40;99.90
25918;DHT22;13899;51.174;4.456;2022-11-13T07:52:12;7.50;99.90
25918;DHT22;13899;51.174;4.456;2022-11-13T07:54:38;7.30;99.90
25918;DHT22;13899;51.174;4.456;2022-11-13T07:57:03;7.20;99.90
25918;DHT22;13899;51.174;4.456;2022-11-13T07:59:29;7.10;99.90
25918;DHT22;13899;51.174;4.456;2022-11-13T08:01:55;6.90;99.90
25918;DHT22;13899;51.174;4.456;2022-11-13T08:04:20;6.90;99.90
25918;DHT22;13899;51.174;4.456;2022-11-13T08:06:47;6.90;99.90
25918;DHT22;13899;51.174;4.456;2022-11-13T08:09:13;6.80;99.90
25918;DHT22;13899;51.174;4.456;2022-11-13T08:11:40;7.00;99.90
25918;DHT22;13899;51.174;4.456;2022-11-13T08:14:05;7.10;99.90
25918;DHT22;13899;51.174;4.456;2022-11-13T08:16:38;7.20;99.90
25918;DHT22;13899;51.174;4.456;2022-11-13T08:19:04;7.10;99.90
25918;DHT22;13899;51.174;4.456;2022-11-13T08:21:30;7.10;99.90
25918;DHT22;13899;51.174;4.456;2022-11-13T08:23:55;7.20;99.90
25918;DHT22;13899;51.174;4.456;2022-11-13T08:26:21;7.20;99.90
25918;DHT22;13899;51.174;4.456;2022-11-13T08:28:47;7.30;99.90
25918;DHT22;13899;51.174;4.456;2022-11-13T08:31:14;7.50;99.90
25918;DHT22;13899;51.174;4.456;2022-11-13T08:33:41;7.50;99.90
25918;DHT22;13899;51.174;4.456;2022-11-13T08:36:07;7.50;99.90
25918;DHT22;13899;51.174;4.456;2022-11-13T08:38:33;7.70;99.90
25918;DHT22;13899;51.174;4.456;2022-11-13T08:40:59;7.90;99.90
25918;DHT22;13899;51.174;4.456;2022-11-13T08:43:26;8.10;99.90
25918;DHT22;13899;51.174;4.456;2022-11-13T08:45:52;8.10;99.90
25918;DHT22;13899;51.174;4.456;2022-11-13T08:48:18;8.30;99.90
25918;DHT22;13899;51.174;4.456;2022-11-13T08:50:44;8.30;99.90
25918;DHT22;13899;51.174;4.456;2022-11-13T08:53:10;8.30;99.90
25918;DHT22;13899;51.174;4.456;2022-11-13T08:55:36;8.20;99.90
25918;DHT22;13899;51.174;4.456;2022-11-13T08:58:02;8.20;99.90
25918;DHT22;13899;51.174;4.456;2022-11-13T09:00:29;8.20;99.90
25918;DHT22;13899;51.174;4.456;2022-11-13T09:02:59;8.20;99.90
25918;DHT22;13899;51.174;4.456;2022-11-13T09:05:27;8.30;99.90
25918;DHT22;13899;51.174;4.456;2022-11-13T09:08:03;8.40;99.90
25918;DHT22;13899;51.174;4.456;2022-11-13T09:10:29;8.50;99.90
25918;DHT22;13899;51.174;4.456;2022-11-13T09:12:56;8.60;99.90
25918;DHT22;13899;51.174;4.456;2022-11-13T09:15:23;8.70;99.90
25918;DHT22;13899;51.174;4.456;2022-11-13T09:17:48;8.80;99.90
25918;DHT22;13899;51.174;4.456;2022-11-13T09:20:14;8.60;99.90
25918;DHT22;13899;51.174;4.456;2022-11-13T09:22:40;8.80;99.90
25918;DHT22;13899;51.174;4.456;2022-11-13T09:25:06;9.10;99.90
25918;DHT22;13899;51.174;4.456;2022-11-13T09:27:31;9.20;99.90
25918;DHT22;13899;51.174;4.456;2022-11-13T09:29:57;9.20;99.90
25918;DHT22;13899;51.174;4.456;2022-11-13T09:32:24;9.60;99.90
25918;DHT22;13899;51.174;4.456;2022-11-13T09:34:49;9.70;99.90
25918;DHT22;13899;51.174;4.456;2022-11-13T09:37:15;9.80;99.90
25918;DHT22;13899;51.174;4.456;2022-11-13T09:39:41;10.00;99.90
25918;DHT22;13899;51.174;4.456;2022-11-13T09:42:16;10.30;99.90
25918;DHT22;13899;51.174;4.456;2022-11-13T09:44:46;10.50;99.90
25918;DHT22;13899;51.174;4.456;2022-11-13T09:47:20;10.60;99.90
25918;DHT22;13899;51.174;4.456;2022-11-13T09:50:04;10.80;99.90
25918;DHT22;13899;51.174;4.456;2022-11-13T09:52:35;11.50;99.90
25918;DHT22;13899;51.174;4.456;2022-11-13T09:55:01;12.00;99.90
25918;DHT22;13899;51.174;4.456;2022-11-13T09:57:37;12.00;99.90
25918;DHT22;13899;51.174;4.456;2022-11-13T10:00:10;12.50;99.90
25918;DHT22;13899;51.174;4.456;2022-11-13T10:08:30;15.80;99.90
25918;DHT22;13899;51.174;4.456;2022-11-13T10:13:58;16.40;99.90
25918;DHT22;13899;51.174;4.456;2022-11-13T10:16:39;17.00;99.90
25918;DHT22;13899;51.174;4.456;2022-11-13T10:24:42;18.90;99.90
25918;DHT22;13899;51.174;4.456;2022-11-13T10:27:10;19.00;99.90
25918;DHT22;13899;51.174;4.456;2022-11-13T10:29:36;19.60;99.90
25918;DHT22;13899;51.174;4.456;2022-11-13T10:32:23;20.20;99.90
25918;DHT22;13899;51.174;4.456;2022-11-13T10:35:04;21.00;99.90
25918;DHT22;13899;51.174;4.456;2022-11-13T10:40:10;21.90;99.90
25918;DHT22;13899;51.174;4.456;2022-11-13T10:42:40;21.30;99.90
25918;DHT22;13899;51.174;4.456;2022-11-13T10:45:15;21.70;99.90
25918;DHT22;13899;51.174;4.456;2022-11-13T10:47:47;22.40;99.90
25918;DHT22;13899;51.174;4.456;2022-11-13T10:50:31;23.10;99.90
25918;DHT22;13899;51.174;4.456;2022-11-13T10:52:57;22.70;99.90
25918;DHT22;13899;51.174;4.456;2022-11-13T10:55:39;22.50;99.90
25918;DHT22;13899;51.174;4.456;2022-11-13T10:58:17;22.40;99.90
25918;DHT22;13899;51.174;4.456;2022-11-13T11:00:44;22.20;99.90
25918;DHT22;13899;51.174;4.456;2022-11-13T11:03:23;22.10;99.90
25918;DHT22;13899;51.174;4.456;2022-11-13T11:05:58;22.40;99.90
25918;DHT22;13899;51.174;4.456;2022-11-13T11:08:33;22.40;99.90
25918;DHT22;13899;51.174;4.456;2022-11-13T11:11:13;23.10;99.90
25918;DHT22;13899;51.174;4.456;2022-11-13T11:14:21;23.20;99.90
25918;DHT22;13899;51.174;4.456;2022-11-13T11:16:50;23.20;99.90
25918;DHT22;13899;51.174;4.456;2022-11-13T11:19:23;23.70;99.90
25918;DHT22;13899;51.174;4.456;2022-11-13T11:21:52;23.00;99.90
25918;DHT22;13899;51.174;4.456;2022-11-13T11:24:25;23.10;99.90
25918;DHT22;13899;51.174;4.456;2022-11-13T11:29:25;23.20;99.90
25918;DHT22;13899;51.174;4.456;2022-11-13T11:32:00;22.70;99.90
25918;DHT22;13899;51.174;4.456;2022-11-13T11:34:47;22.60;99.90
25918;DHT22;13899;51.174;4.456;2022-11-13T11:37:15;23.00;99.90
25918;DHT22;13899;51.174;4.456;2022-11-13T11:39:54;23.10;99.90
25918;DHT22;13899;51.174;4.456;2022-11-13T11:42:46;22.90;99.90
25918;DHT22;13899;51.174;4.456;2022-11-13T11:45:34;23.10;99.90
25918;DHT22;13899;51.174;4.456;2022-11-13T11:48:02;23.50;99.90
25918;DHT22;13899;51.174;4.456;2022-11-13T11:53:19;23.90;99.90
25918;DHT22;13899;51.174;4.456;2022-11-13T12:09:28;24.80;99.90
25918;DHT22;13899;51.174;4.456;2022-11-13T12:12:04;25.00;99.90
25918;DHT22;13899;51.174;4.456;2022-11-13T12:20:05;24.70;99.90
25918;DHT22;13899;51.174;4.456;2022-11-13T12:23:14;24.10;99.90
25918;DHT22;13899;51.174;4.456;2022-11-13T12:28:45;24.10;99.90
25918;DHT22;13899;51.174;4.456;2022-11-13T12:31:41;24.90;99.90
25918;DHT22;13899;51.174;4.456;2022-11-13T12:36:56;25.50;99.90
25918;DHT22;13899;51.174;4.456;2022-11-13T12:42:20;25.90;97.80
25918;DHT22;13899;51.174;4.456;2022-11-13T12:45:12;25.50;97.80
25918;DHT22;13899;51.174;4.456;2022-11-13T12:47:41;25.70;97.90
25918;DHT22;13899;51.174;4.456;2022-11-13T12:55:30;25.90;94.20
25918;DHT22;13899;51.174;4.456;2022-11-13T12:58:18;26.10;94.10
25918;DHT22;13899;51.174;4.456;2022-11-13T13:00:59;26.20;93.40
25918;DHT22;13899;51.174;4.456;2022-11-13T13:15:34;26.70;90.70
25918;DHT22;13899;51.174;4.456;2022-11-13T13:21:04;26.60;90.80
25918;DHT22;13899;51.174;4.456;2022-11-13T13:23:38;26.80;90.60
25918;DHT22;13899;51.174;4.456;2022-11-13T13:26:28;26.50;89.90
25918;DHT22;13899;51.174;4.456;2022-11-13T13:29:23;26.60;90.70
25918;DHT22;13899;51.174;4.456;2022-11-13T13:32:15;26.00;90.40
25918;DHT22;13899;51.174;4.456;2022-11-13T13:41:00;24.40;92.50
25918;DHT22;13899;51.174;4.456;2022-11-13T13:49:31;24.10;95.20
25918;DHT22;13899;51.174;4.456;2022-11-13T13:52:01;24.30;94.40
25918;DHT22;13899;51.174;4.456;2022-11-13T13:54:33;23.90;94.10
25918;DHT22;13899;51.174;4.456;2022-11-13T13:57:03;24.10;92.90
25918;DHT22;13899;51.174;4.456;2022-11-13T13:59:40;23.90;94.70
25918;DHT22;13899;51.174;4.456;2022-11-13T14:02:18;23.30;94.80
25918;DHT22;13899;51.174;4.456;2022-11-13T14:04:46;23.20;95.60
25918;DHT22;13899;51.174;4.456;2022-11-13T14:07:29;23.20;96.20
25918;DHT22;13899;51.174;4.456;2022-11-13T14:12:41;24.30;95.50
25918;DHT22;13899;51.174;4.456;2022-11-13T14:15:26;24.80;94.20
25918;DHT22;13899;51.174;4.456;2022-11-13T14:18:04;24.70;94.80
25918;DHT22;13899;51.174;4.456;2022-11-13T14:23:18;25.40;95.60
25918;DHT22;13899;51.174;4.456;2022-11-13T14:25:45;25.80;94.90
25918;DHT22;13899;51.174;4.456;2022-11-13T14:28:17;25.80;95.20
25918;DHT22;13899;51.174;4.456;2022-11-13T14:30:51;26.20;94.50
25918;DHT22;13899;51.174;4.456;2022-11-13T14:33:23;26.40;94.10
25918;DHT22;13899;51.174;4.456;2022-11-13T14:35:52;26.80;93.90
25918;DHT22;13899;51.174;4.456;2022-11-13T14:38:23;26.90;92.80
25918;DHT22;13899;51.174;4.456;2022-11-13T14:40:51;27.10;92.50
25918;DHT22;13899;51.174;4.456;2022-11-13T14:43:31;26.70;92.80
25918;DHT22;13899;51.174;4.456;2022-11-13T14:46:01;26.20;92.80
25918;DHT22;13899;51.174;4.456;2022-11-13T14:48:30;25.70;93.00
25918;DHT22;13899;51.174;4.456;2022-11-13T14:51:01;25.30;93.90
25918;DHT22;13899;51.174;4.456;2022-11-13T14:53:36;24.90;96.40
25918;DHT22;13899;51.174;4.456;2022-11-13T14:56:06;24.20;97.60
25918;DHT22;13899;51.174;4.456;2022-11-13T14:58:38;23.70;99.10
25918;DHT22;13899;51.174;4.456;2022-11-13T15:01:16;23.50;99.70
25918;DHT22;13899;51.174;4.456;2022-11-13T15:03:45;22.70;99.90
25918;DHT22;13899;51.174;4.456;2022-11-13T15:06:20;22.10;99.90
25918;DHT22;13899;51.174;4.456;2022-11-13T15:08:53;21.30;99.90
25918;DHT22;13899;51.174;4.456;2022-11-13T15:11:22;20.90;99.90
25918;DHT22;13899;51.174;4.456;2022-11-13T15:13:48;20.20;99.90
25918;DHT22;13899;51.174;4.456;2022-11-13T15:16:28;19.60;99.90
25918;DHT22;13899;51.174;4.456;2022-11-13T15:21:29;19.50;99.90
25918;DHT22;13899;51.174;4.456;2022-11-13T15:23:55;19.00;99.90
25918;DHT22;13899;51.174;4.456;2022-11-13T15:26:21;18.60;99.90
25918;DHT22;13899;51.174;4.456;2022-11-13T15:28:47;18.20;99.90
25918;DHT22;13899;51.174;4.456;2022-11-13T15:31:34;18.10;99.90
25918;DHT22;13899;51.174;4.456;2022-11-13T15:34:01;18.10;99.90
25918;DHT22;13899;51.174;4.456;2022-11-13T15:36:26;17.90;99.90
25918;DHT22;13899;51.174;4.456;2022-11-13T15:38:52;17.80;99.90
25918;DHT22;13899;51.174;4.456;2022-11-13T15:41:22;17.60;99.90
25918;DHT22;13899;51.174;4.456;2022-11-13T15:43:50;17.50;99.90
25918;DHT22;13899;51.174;4.456;2022-11-13T15:46:18;17.60;99.90
25918;DHT22;13899;51.174;4.456;2022-11-13T15:48:45;17.30;99.90
25918;DHT22;13899;51.174;4.456;2022-11-13T15:53:42;17.00;99.90
25918;DHT22;13899;51.174;4.456;2022-11-13T15:56:08;16.80;99.90
25918;DHT22;13899;51.174;4.456;2022-11-13T15:58:33;16.90;99.90
25918;DHT22;13899;51.174;4.456;2022-11-13T16:00:59;16.70;99.90
25918;DHT22;13899;51.174;4.456;2022-11-13T16:03:25;16.60;99.90
25918;DHT22;13899;51.174;4.456;2022-11-13T16:05:50;16.20;99.90
25918;DHT22;13899;51.174;4.456;2022-11-13T16:08:16;16.00;99.90
25918;DHT22;13899;51.174;4.456;2022-11-13T16:10:41;15.90;99.90
25918;DHT22;13899;51.174;4.456;2022-11-13T16:13:07;15.70;99.90
25918;DHT22;13899;51.174;4.456;2022-11-13T16:15:33;15.50;99.90
25918;DHT22;13899;51.174;4.456;2022-11-13T16:17:59;15.50;99.90
25918;DHT22;13899;51.174;4.456;2022-11-13T16:20:26;15.40;99.90
25918;DHT22;13899;51.174;4.456;2022-11-13T16:22:51;15.30;99.90
25918;DHT22;13899;51.174;4.456;2022-11-13T16:25:19;15.20;99.90
25918;DHT22;13899;51.174;4.456;2022-11-13T16:27:45;15.10;99.90
25918;DHT22;13899;51.174;4.456;2022-11-13T16:30:29;15.00;99.90
25918;DHT22;13899;51.174;4.456;2022-11-13T16:32:56;15.10;99.90
25918;DHT22;13899;51.174;4.456;2022-11-13T16:35:22;14.90;99.90
25918;DHT22;13899;51.174;4.456;2022-11-13T16:37:47;14.80;99.90
25918;DHT22;13899;51.174;4.456;2022-11-13T16:40:21;14.80;99.90
25918;DHT22;13899;51.174;4.456;2022-11-13T16:42:47;14.70;99.90
25918;DHT22;13899;51.174;4.456;2022-11-13T16:45:13;14.60;99.90
25918;DHT22;13899;51.174;4.456;2022-11-13T16:47:39;14.60;99.90
25918;DHT22;13899;51.174;4.456;2022-11-13T16:50:15;14.60;99.90
25918;DHT22;13899;51.174;4.456;2022-11-13T16:52:41;14.60;99.90
25918;DHT22;13899;51.174;4.456;2022-11-13T16:55:07;14.50;99.90
25918;DHT22;13899;51.174;4.456;2022-11-13T16:57:33;14.60;99.90
25918;DHT22;13899;51.174;4.456;2022-11-13T16:59:58;14.40;99.90
25918;DHT22;13899;51.174;4.456;2022-11-13T17:02:24;14.30;99.90
25918;DHT22;13899;51.174;4.456;2022-11-13T17:04:50;14.20;99.90
25918;DHT22;13899;51.174;4.456;2022-11-13T17:07:15;14.10;99.90
25918;DHT22;13899;51.174;4.456;2022-11-13T17:09:42;14.00;99.90
25918;DHT22;13899;51.174;4.456;2022-11-13T17:12:09;13.80;99.90
25918;DHT22;13899;51.174;4.456;2022-11-13T17:14:35;13.80;99.90
25918;DHT22;13899;51.174;4.456;2022-11-13T17:17:02;13.60;99.90
25918;DHT22;13899;51.174;4.456;2022-11-13T17:19:28;13.60;99.90
25918;DHT22;13899;51.174;4.456;2022-11-13T17:21:54;13.50;99.90
25918;DHT22;13899;51.174;4.456;2022-11-13T17:24:27;13.40;99.90
25918;DHT22;13899;51.174;4.456;2022-11-13T17:26:53;13.40;99.90
25918;DHT22;13899;51.174;4.456;2022-11-13T17:29:19;13.30;99.90
25918;DHT22;13899;51.174;4.456;2022-11-13T17:31:44;13.40;99.90